Naples Municipal Airport
KAPF : now visible

Airfield :











YOU CAN JOIN US ON...

 
LOGIN :

Register | Disclaimer

   EN    FR    IT 

 









Legend :    VFR   Marginal VFR   IFR   Intensive IFR   Very Intensive IFR
Visi :
Ceiling :
>= 8 km
>= 3000ft
5 to 8 km
1000 to 3000 ft
1500m to 5 km
500 to 1000 ft
800 to 1500m
200 to 500 ft
< 800m
< 200 ft
Symbols :   Thunderstorms  Fog  Heavy snow  Heavy precipitations  Wind > 20 kt






- Airport Elevation : 8 ft


KAPF - Naples Municipal

CURRENT METAR :
  • 281953Z AUTO 03006KT 10SM FEW026 FEW045 OVC100 28/22 A2999 RMK AO2 SLP155 T02780217 PWINO $

EXPIRED METARs :
  • 281943Z 03006KT 10SM SCT024 BKN044 OVC095 28/22 A3000 RMK AO2 T02780222 $
  • 281853Z 30009KT 10SM BKN026 BKN041 28/23 A3000 RMK AO2 SLP156 T02780228 $
  • 281850Z 31006KT 10SM BKN024 BKN041 28/22 A3000 RMK AO2 $
  • 281812Z 31007KT 10SM SCT023 BKN055 OVC100 28/23 A3001 RMK AO2 T02780228 $
  • 281800Z 29008KT 10SM BKN023 BKN032 OVC055 28/23 A3001 RMK AO2 T02780228 $
  • 281753Z 35004KT 10SM SCT023 28/22 A3001 RMK AO2 SLP162 60000 T02830222 10294 20244 58018 $

TAF KAPF
Valid from the 28 at 18:00 until the 29 at 18:00 UTC


281730Z 2818/2918 05005KT P6SM SCT020 BKN050
FM290100 06005KT P6SM FEW030 BKN200
FM291500 07010KT P6SM SCT050
KZMA FIR / North America



MET'MAP, your aeronautical weather chart ! - Copyright ORBIFLY December 2007 - Disclaimer

ORBIFLY MET'MAP TEAM :

Programming & Development : Alexandra Zaïnal
Original concept : Baudouin d'Aumeries
Technical & hardware support : Manuel Goepfert
Assistance : Marc-Olivier Méhu




SOURCES & CREDITS :

   NOAA       Earth
Advisory